createdAt,value
2023-05-09T00:02:08.941Z,42.70
2023-05-09T00:04:37.189Z,41.60
2023-05-09T00:07:07.289Z,39.90
2023-05-09T00:09:35.000Z,40.30
2023-05-09T00:12:05.146Z,41.30
2023-05-09T00:14:33.436Z,41.90
2023-05-09T00:17:01.159Z,38.67
2023-05-09T00:19:29.647Z,42.30
2023-05-09T00:21:57.316Z,40.40
2023-05-09T00:24:25.357Z,40.30
2023-05-09T00:26:53.479Z,39.70
2023-05-09T00:29:23.123Z,43.80
2023-05-09T00:31:51.964Z,39.73
2023-05-09T00:34:20.035Z,39.77
2023-05-09T00:36:47.987Z,39.57
2023-05-09T00:39:15.897Z,42.03
2023-05-09T00:41:44.494Z,46.80
2023-05-09T00:44:12.422Z,40.97
2023-05-09T00:46:42.081Z,42.63
2023-05-09T00:49:10.273Z,41.00
2023-05-09T00:51:38.308Z,39.70
2023-05-09T00:54:09.046Z,39.50
2023-05-09T00:56:38.611Z,41.57
2023-05-09T00:59:07.251Z,38.23
2023-05-09T01:01:35.587Z,40.30
2023-05-09T01:06:56.144Z,41.20
2023-05-09T01:09:27.893Z,39.87
2023-05-09T01:12:00.625Z,39.40
2023-05-09T01:14:34.547Z,39.07
2023-05-09T01:17:05.812Z,39.37
2023-05-09T01:19:51.953Z,40.33
2023-05-09T01:22:21.254Z,42.90
2023-05-09T01:25:01.409Z,37.13
2023-05-09T01:27:34.272Z,38.70
2023-05-09T01:30:04.402Z,39.77
2023-05-09T01:32:33.553Z,47.10
2023-05-09T01:35:03.171Z,46.33
2023-05-09T01:37:32.803Z,39.47
2023-05-09T01:40:01.791Z,37.97
2023-05-09T01:42:32.271Z,39.93
2023-05-09T01:45:01.065Z,40.70
2023-05-09T01:47:32.747Z,40.00
2023-05-09T01:50:02.412Z,38.10
2023-05-09T01:52:31.232Z,38.23
2023-05-09T01:54:59.909Z,37.90
2023-05-09T01:57:28.307Z,36.50
2023-05-09T01:59:57.005Z,39.60
2023-05-09T02:02:26.902Z,37.33
2023-05-09T02:04:57.124Z,38.60
2023-05-09T02:07:25.549Z,37.90
2023-05-09T02:09:56.535Z,39.47
2023-05-09T02:12:24.855Z,38.20
2023-05-09T02:14:52.642Z,36.27
2023-05-09T02:17:21.519Z,38.43
2023-05-09T02:19:49.545Z,38.23
2023-05-09T02:22:18.830Z,42.63
2023-05-09T02:24:46.781Z,36.17
2023-05-09T02:27:15.588Z,40.23
2023-05-09T02:29:45.365Z,39.03
2023-05-09T02:32:14.965Z,41.57
2023-05-09T02:34:43.189Z,35.70
2023-05-09T02:37:11.175Z,35.77
2023-05-09T02:39:40.813Z,38.13
2023-05-09T02:42:10.196Z,36.57
2023-05-09T02:44:38.710Z,36.00
2023-05-09T02:47:06.928Z,39.47
2023-05-09T02:49:35.330Z,37.33
2023-05-09T02:52:05.077Z,38.20
2023-05-09T02:54:32.842Z,37.60
2023-05-09T02:57:02.471Z,37.10
2023-05-09T02:59:30.422Z,37.60
2023-05-09T03:02:02.042Z,39.10
2023-05-09T03:04:30.674Z,37.70
2023-05-09T03:06:58.517Z,37.70
2023-05-09T03:09:31.834Z,36.20
2023-05-09T03:11:59.721Z,36.57
2023-05-09T03:14:28.800Z,38.10
2023-05-09T03:16:56.939Z,36.97
2023-05-09T03:19:33.725Z,36.37
2023-05-09T03:22:01.649Z,36.27
2023-05-09T03:24:32.245Z,36.47
2023-05-09T03:27:00.075Z,37.20
2023-05-09T03:29:30.054Z,38.43
2023-05-09T03:31:57.937Z,39.10
2023-05-09T03:34:25.638Z,36.10
2023-05-09T03:36:53.885Z,40.30
2023-05-09T03:39:21.710Z,36.70
2023-05-09T03:41:55.211Z,36.40
2023-05-09T03:44:23.503Z,37.57
2023-05-09T03:46:52.762Z,37.33
2023-05-09T03:49:21.078Z,41.60
2023-05-09T03:51:52.135Z,37.50
2023-05-09T03:54:21.511Z,35.73
2023-05-09T03:56:49.254Z,40.00
2023-05-09T03:59:17.247Z,38.67
2023-05-09T04:01:45.211Z,37.67
2023-05-09T04:04:14.412Z,38.73
2023-05-09T04:06:42.188Z,38.60
2023-05-09T04:09:11.466Z,39.50
2023-05-09T04:11:42.013Z,37.50
2023-05-09T04:14:13.052Z,35.90
2023-05-09T04:16:41.191Z,46.27
2023-05-09T04:19:10.246Z,40.10
2023-05-09T04:21:41.133Z,37.67
2023-05-09T04:24:09.662Z,37.50
2023-05-09T04:26:42.878Z,36.77
2023-05-09T04:29:14.189Z,35.23
2023-05-09T04:31:44.195Z,40.03
2023-05-09T04:34:14.025Z,38.23
2023-05-09T04:36:43.376Z,41.27
2023-05-09T04:39:11.477Z,37.40
2023-05-09T04:41:44.453Z,38.87
2023-05-09T04:44:12.501Z,38.27
2023-05-09T04:46:40.683Z,37.80
2023-05-09T04:49:09.448Z,40.30
2023-05-09T04:51:37.379Z,41.17
2023-05-09T04:54:07.185Z,42.23
2023-05-09T04:56:38.660Z,39.97
2023-05-09T04:59:06.487Z,41.60
2023-05-09T05:01:34.763Z,42.87
2023-05-09T05:04:03.299Z,43.30
2023-05-09T05:06:33.189Z,40.93
2023-05-09T05:09:02.589Z,40.30
2023-05-09T05:11:31.621Z,38.57
2023-05-09T05:13:59.729Z,37.47
2023-05-09T05:16:28.436Z,40.37
2023-05-09T05:18:56.269Z,39.73
2023-05-09T05:21:24.126Z,40.47
2023-05-09T05:23:52.088Z,45.73
2023-05-09T05:26:21.008Z,39.63
2023-05-09T05:28:55.300Z,39.70
2023-05-09T05:31:26.122Z,39.57
2023-05-09T05:33:53.999Z,40.40
2023-05-09T05:36:22.630Z,42.70
2023-05-09T05:38:51.559Z,50.57
2023-05-09T05:41:19.602Z,36.90
2023-05-09T05:43:49.471Z,40.13
2023-05-09T05:46:18.805Z,38.77
2023-05-09T05:48:46.709Z,42.77
2023-05-09T05:51:14.767Z,45.23
2023-05-09T05:53:43.937Z,40.40
2023-05-09T05:56:11.771Z,41.93
2023-05-09T05:58:41.868Z,45.40
2023-05-09T06:01:10.529Z,47.07
2023-05-09T06:03:39.802Z,39.00
2023-05-09T06:06:08.789Z,41.80
2023-05-09T06:08:36.532Z,39.63
2023-05-09T06:11:05.836Z,40.07
2023-05-09T06:13:33.968Z,45.27
2023-05-09T06:16:18.421Z,46.63
2023-05-09T06:18:54.053Z,40.57
2023-05-09T06:21:23.892Z,41.33
2023-05-09T06:24:06.542Z,42.40
2023-05-09T06:26:38.374Z,45.20
2023-05-09T06:29:06.398Z,48.47
2023-05-09T06:31:35.806Z,45.47
2023-05-09T06:34:05.350Z,48.43
2023-05-09T06:36:33.454Z,28.27
2023-05-09T06:39:01.541Z,28.30
2023-05-09T06:41:29.353Z,34.33
2023-05-09T06:43:57.683Z,25.93
2023-05-09T06:46:25.450Z,26.97
2023-05-09T06:48:53.451Z,26.73
2023-05-09T06:51:22.623Z,27.80
2023-05-09T06:53:50.952Z,26.60
2023-05-09T06:56:20.268Z,27.90
2023-05-09T06:58:48.179Z,23.07
2023-05-09T07:01:15.882Z,36.63
2023-05-09T07:03:43.847Z,25.10
2023-05-09T07:06:11.868Z,27.83
2023-05-09T07:08:41.020Z,28.93
2023-05-09T07:11:08.938Z,35.10
2023-05-09T07:13:36.665Z,27.67
2023-05-09T07:16:04.642Z,25.93
2023-05-09T07:18:32.741Z,24.20
2023-05-09T07:21:00.528Z,23.30
2023-05-09T07:23:28.451Z,24.73
2023-05-09T07:26:01.361Z,29.20
2023-05-09T07:28:29.230Z,23.50
2023-05-09T07:30:57.175Z,31.33
2023-05-09T07:33:25.609Z,23.23
2023-05-09T07:35:53.998Z,27.73
2023-05-09T07:38:21.958Z,29.87
2023-05-09T07:40:49.872Z,27.53
2023-05-09T07:43:19.247Z,28.57
2023-05-09T07:45:47.948Z,32.40
2023-05-09T07:48:15.824Z,23.00
2023-05-09T07:50:43.661Z,27.80
2023-05-09T07:53:12.118Z,25.30
2023-05-09T07:55:40.289Z,29.10
2023-05-09T07:58:08.353Z,26.63
2023-05-09T08:00:37.443Z,26.23
2023-05-09T08:03:05.485Z,25.27
2023-05-09T08:05:34.097Z,28.10
2023-05-09T08:08:02.214Z,25.80
2023-05-09T08:10:30.603Z,28.37
2023-05-09T08:12:58.531Z,31.07
2023-05-09T08:15:26.488Z,28.50
2023-05-09T08:17:55.768Z,29.00
2023-05-09T08:20:24.190Z,31.50
2023-05-09T08:22:52.076Z,30.77
2023-05-09T08:25:20.821Z,29.67
2023-05-09T08:27:48.508Z,29.87
2023-05-09T08:30:16.726Z,30.00
2023-05-09T08:32:44.454Z,28.00
2023-05-09T08:35:14.702Z,48.10
2023-05-09T08:37:42.553Z,24.63
2023-05-09T08:40:10.634Z,28.03
2023-05-09T08:42:40.199Z,22.37
2023-05-09T08:45:10.293Z,31.53
2023-05-09T08:47:38.800Z,23.13
2023-05-09T08:50:07.088Z,22.93
2023-05-09T08:52:36.427Z,21.53
2023-05-09T08:55:04.976Z,26.93
2023-05-09T08:57:35.170Z,26.00
2023-05-09T09:00:04.696Z,19.10
2023-05-09T09:02:34.345Z,21.93
2023-05-09T09:05:02.908Z,21.53
2023-05-09T09:07:31.733Z,19.10
2023-05-09T09:10:01.792Z,23.10
2023-05-09T09:12:29.878Z,22.93
2023-05-09T09:14:57.777Z,22.33
2023-05-09T09:17:28.027Z,24.53
2023-05-09T09:20:00.292Z,22.70
2023-05-09T09:22:33.707Z,24.27
2023-05-09T09:25:06.325Z,17.67
2023-05-09T09:27:35.489Z,20.57
2023-05-09T09:30:09.969Z,19.90
2023-05-09T09:32:38.525Z,21.27
2023-05-09T09:35:07.913Z,20.43
2023-05-09T09:37:36.629Z,26.07
2023-05-09T09:40:08.673Z,24.93
2023-05-09T09:42:43.895Z,17.33
2023-05-09T09:45:13.469Z,17.23
2023-05-09T09:47:41.912Z,33.30
2023-05-09T09:50:14.279Z,17.40
2023-05-09T09:52:45.758Z,16.80
2023-05-09T09:55:16.653Z,17.20
2023-05-09T09:57:45.689Z,16.33
2023-05-09T10:00:14.309Z,21.63
2023-05-09T10:02:50.459Z,19.30
2023-05-09T10:05:22.458Z,18.23
2023-05-09T10:07:57.584Z,19.97
2023-05-09T10:10:29.151Z,20.23
2023-05-09T10:13:19.908Z,25.00
2023-05-09T10:15:53.564Z,18.53
2023-05-09T10:18:26.370Z,18.83
2023-05-09T10:20:54.827Z,21.30
2023-05-09T10:23:24.164Z,16.30
2023-05-09T10:25:58.653Z,17.40
2023-05-09T10:28:29.201Z,16.73
2023-05-09T10:30:58.935Z,15.53
2023-05-09T10:33:28.234Z,18.17
2023-05-09T10:35:56.632Z,16.20
2023-05-09T10:38:24.852Z,18.30
2023-05-09T10:40:54.548Z,17.57
2023-05-09T10:43:25.037Z,17.00
2023-05-09T10:45:53.124Z,21.23
2023-05-09T10:48:21.779Z,18.23
2023-05-09T10:50:49.801Z,16.80
2023-05-09T10:53:18.322Z,18.27
2023-05-09T10:55:50.780Z,16.67
2023-05-09T10:58:24.953Z,21.90
2023-05-09T11:00:55.177Z,21.67
2023-05-09T11:03:24.734Z,17.37
2023-05-09T11:05:53.503Z,18.30
2023-05-09T11:08:26.744Z,18.13
2023-05-09T11:10:55.147Z,20.37
2023-05-09T11:13:26.139Z,23.93
2023-05-09T11:16:21.257Z,16.90
2023-05-09T11:18:53.363Z,16.40
2023-05-09T11:21:21.761Z,16.80
2023-05-09T11:23:52.924Z,19.47
2023-05-09T11:26:23.564Z,17.60
2023-05-09T11:28:56.762Z,20.90
2023-05-09T11:31:25.057Z,21.57
2023-05-09T11:33:58.240Z,23.03
2023-05-09T11:36:32.136Z,15.80
2023-05-09T11:39:06.223Z,19.70
2023-05-09T11:41:41.472Z,18.23
2023-05-09T11:44:21.080Z,15.93
2023-05-09T11:46:49.417Z,16.33
2023-05-09T11:49:19.282Z,16.73
2023-05-09T11:51:47.184Z,26.97
2023-05-09T11:54:15.280Z,18.33
2023-05-09T11:56:43.543Z,20.00
2023-05-09T11:59:13.208Z,19.10
2023-05-09T12:01:44.647Z,15.87
2023-05-09T12:04:12.877Z,18.37
2023-05-09T12:06:40.728Z,18.20
2023-05-09T12:09:10.426Z,18.50
2023-05-09T12:11:38.743Z,16.20
2023-05-09T12:14:06.475Z,24.70
2023-05-09T12:16:35.237Z,19.00
2023-05-09T12:19:05.403Z,18.00
2023-05-09T12:21:33.539Z,18.03
2023-05-09T12:24:01.473Z,18.37
2023-05-09T12:26:30.470Z,26.07
2023-05-09T12:28:58.142Z,18.00
2023-05-09T12:31:26.150Z,21.90
2023-05-09T12:33:54.015Z,18.70
2023-05-09T12:36:24.990Z,15.87
2023-05-09T12:38:56.238Z,16.40
2023-05-09T12:43:55.929Z,21.40
2023-05-09T12:46:24.316Z,16.70
2023-05-09T12:48:52.319Z,20.30
2023-05-09T12:51:21.084Z,19.60
2023-05-09T12:53:50.998Z,22.47
2023-05-09T12:56:19.234Z,31.53
2023-05-09T12:58:51.764Z,29.97
2023-05-09T13:01:19.653Z,18.43
2023-05-09T13:03:52.358Z,17.97
2023-05-09T13:06:21.091Z,17.73
2023-05-09T13:09:00.344Z,22.63
2023-05-09T13:11:28.686Z,16.33
2023-05-09T13:13:56.424Z,20.03
2023-05-09T13:16:24.742Z,18.13
2023-05-09T13:18:52.545Z,16.80
2023-05-09T13:21:20.927Z,22.73
2023-05-09T13:23:50.172Z,24.43
2023-05-09T13:26:19.330Z,19.70
2023-05-09T13:28:47.081Z,17.40
2023-05-09T13:31:15.327Z,17.77
2023-05-09T13:33:43.114Z,16.57
2023-05-09T13:36:11.068Z,17.00
2023-05-09T13:38:40.535Z,21.23
2023-05-09T13:41:08.863Z,24.23
2023-05-09T13:43:38.415Z,17.47
2023-05-09T13:46:06.180Z,18.60
2023-05-09T13:48:33.975Z,18.73
2023-05-09T13:51:02.432Z,17.13
2023-05-09T13:53:30.398Z,15.47
2023-05-09T13:55:58.354Z,17.13
2023-05-09T13:58:26.206Z,22.33
2023-05-09T14:00:55.684Z,18.37
2023-05-09T14:03:23.970Z,26.90
2023-05-09T14:05:52.212Z,27.03
2023-05-09T14:08:21.314Z,15.37
2023-05-09T14:10:49.485Z,25.63
2023-05-09T14:13:18.174Z,15.83
2023-05-09T14:15:45.991Z,18.83
2023-05-09T14:18:18.444Z,24.43
2023-05-09T14:20:48.145Z,19.70
2023-05-09T14:23:15.923Z,17.27
2023-05-09T14:25:43.692Z,16.30
2023-05-09T14:28:12.056Z,17.13
2023-05-09T14:30:39.790Z,18.10
2023-05-09T14:33:07.813Z,16.50
2023-05-09T14:35:40.433Z,23.83
2023-05-09T14:38:09.249Z,17.20
2023-05-09T14:40:37.271Z,19.53
2023-05-09T14:43:05.944Z,16.87
2023-05-09T14:45:34.415Z,18.47
2023-05-09T14:48:03.379Z,21.80
2023-05-09T14:50:31.337Z,22.47
2023-05-09T14:53:01.011Z,26.13
2023-05-09T14:55:28.993Z,18.10
2023-05-09T14:57:57.124Z,18.77
2023-05-09T15:00:25.576Z,16.57
2023-05-09T15:02:54.380Z,16.07
2023-05-09T15:05:22.337Z,22.50
2023-05-09T15:07:50.097Z,22.03
2023-05-09T15:10:19.533Z,20.53
2023-05-09T15:12:47.740Z,16.73
2023-05-09T15:15:16.452Z,14.70
2023-05-09T15:17:44.963Z,16.60
2023-05-09T15:20:13.508Z,17.27
2023-05-09T15:22:41.387Z,21.53
2023-05-09T15:25:10.565Z,25.27
2023-05-09T15:27:40.246Z,18.10
2023-05-09T15:30:08.908Z,21.40
2023-05-09T15:32:39.574Z,21.53
2023-05-09T15:35:08.655Z,19.80
2023-05-09T15:37:36.445Z,18.40
2023-05-09T15:40:04.565Z,18.27
2023-05-09T15:42:32.368Z,22.03
2023-05-09T15:45:01.804Z,16.87
2023-05-09T15:47:30.603Z,21.93
2023-05-09T15:49:58.307Z,22.20
2023-05-09T15:52:27.492Z,22.27
2023-05-09T15:54:55.894Z,17.83
2023-05-09T15:57:24.785Z,19.80
2023-05-09T15:59:54.394Z,19.43
2023-05-09T16:02:25.466Z,21.20
2023-05-09T16:04:53.468Z,20.33
2023-05-09T16:07:21.160Z,20.57
2023-05-09T16:09:49.189Z,17.20
2023-05-09T16:12:17.282Z,19.77
2023-05-09T16:14:46.369Z,15.63
2023-05-09T16:17:14.048Z,18.43
2023-05-09T16:19:43.177Z,17.83
2023-05-09T16:22:11.420Z,17.23
2023-05-09T16:24:39.555Z,19.17
2023-05-09T16:27:07.482Z,20.37
2023-05-09T16:29:35.272Z,20.13
2023-05-09T16:32:03.407Z,19.33
2023-05-09T16:34:31.971Z,19.60
2023-05-09T16:37:01.140Z,24.20
2023-05-09T16:39:29.410Z,20.17
2023-05-09T16:41:57.946Z,18.43
2023-05-09T16:44:26.407Z,16.27
2023-05-09T16:46:54.210Z,22.03
2023-05-09T16:49:22.023Z,26.20
2023-05-09T16:51:50.078Z,18.10
2023-05-09T16:54:19.688Z,19.70
2023-05-09T16:56:47.419Z,19.10
2023-05-09T16:59:15.369Z,15.07
2023-05-09T17:01:43.531Z,17.40
2023-05-09T17:04:11.758Z,16.60
2023-05-09T17:06:39.967Z,37.53
2023-05-09T17:09:08.008Z,21.40
2023-05-09T17:11:37.052Z,21.40
2023-05-09T17:14:04.968Z,20.90
2023-05-09T17:16:34.319Z,20.30
2023-05-09T17:19:03.588Z,17.87
2023-05-09T17:21:32.093Z,19.00
2023-05-09T17:24:02.000Z,18.10
2023-05-09T17:26:30.714Z,20.63
2023-05-09T17:28:59.765Z,18.53
2023-05-09T17:31:27.855Z,17.80
2023-05-09T17:33:55.883Z,20.03
2023-05-09T17:36:23.681Z,19.50
2023-05-09T17:38:51.626Z,17.70
2023-05-09T17:41:19.453Z,17.10
2023-05-09T17:43:47.126Z,19.20
2023-05-09T17:46:16.620Z,16.37
2023-05-09T17:48:44.566Z,17.57
2023-05-09T17:51:12.534Z,20.13
2023-05-09T17:53:40.569Z,17.17
2023-05-09T17:56:08.427Z,20.47
2023-05-09T17:58:36.540Z,17.50
2023-05-09T18:01:05.468Z,19.40
2023-05-09T18:03:34.776Z,20.30
2023-05-09T18:06:02.775Z,26.90
2023-05-09T18:08:30.732Z,17.57
2023-05-09T18:10:58.919Z,17.47
2023-05-09T18:13:26.808Z,19.20
2023-05-09T18:15:59.482Z,20.40
2023-05-09T18:18:30.872Z,21.70
2023-05-09T18:21:00.131Z,20.73
2023-05-09T18:23:28.250Z,17.50
2023-05-09T18:25:56.042Z,17.57
2023-05-09T18:28:25.911Z,17.77
2023-05-09T18:30:54.508Z,23.03
2023-05-09T18:33:23.641Z,18.07
2023-05-09T18:35:53.495Z,21.40
2023-05-09T18:38:22.934Z,22.00
2023-05-09T18:40:51.985Z,30.87
2023-05-09T18:43:20.808Z,16.20
2023-05-09T18:45:49.072Z,19.33
2023-05-09T18:48:17.145Z,19.93
2023-05-09T18:50:45.447Z,21.50
2023-05-09T18:53:13.125Z,17.07
2023-05-09T18:55:42.751Z,16.20
2023-05-09T18:58:10.731Z,15.87
2023-05-09T19:00:39.790Z,19.50
2023-05-09T19:03:08.192Z,20.70
2023-05-09T19:05:36.869Z,18.10
2023-05-09T19:08:04.735Z,19.87
2023-05-09T19:10:33.686Z,21.10
2023-05-09T19:13:03.349Z,19.37
2023-05-09T19:15:31.400Z,19.37
2023-05-09T19:17:59.241Z,20.07
2023-05-09T19:20:30.194Z,19.80
2023-05-09T19:22:58.706Z,19.90
2023-05-09T19:25:27.305Z,16.40
2023-05-09T19:27:55.779Z,18.50
2023-05-09T19:30:25.472Z,18.17
2023-05-09T19:32:53.891Z,18.27
2023-05-09T19:35:23.905Z,17.03
2023-05-09T19:37:51.866Z,19.00
2023-05-09T19:40:20.726Z,18.00
2023-05-09T19:42:50.369Z,19.40
2023-05-09T19:45:18.411Z,16.87
2023-05-09T19:47:47.963Z,16.43
2023-05-09T19:50:16.275Z,24.93
2023-05-09T19:52:44.521Z,19.10
2023-05-09T19:55:13.534Z,15.77
2023-05-09T19:57:42.167Z,16.77
2023-05-09T20:00:10.652Z,18.50
2023-05-09T20:02:40.215Z,16.60
2023-05-09T20:05:10.192Z,18.93
2023-05-09T20:07:37.974Z,23.20
2023-05-09T20:10:06.064Z,16.00
2023-05-09T20:12:34.692Z,17.63
2023-05-09T20:15:02.456Z,18.87
2023-05-09T20:17:30.244Z,17.33
2023-05-09T20:19:58.823Z,18.43
2023-05-09T20:22:28.649Z,19.97
2023-05-09T20:24:56.513Z,18.83
2023-05-09T20:27:24.338Z,23.27
2023-05-09T20:29:52.370Z,20.67
2023-05-09T20:32:20.097Z,17.00
2023-05-09T20:34:48.112Z,18.77
2023-05-09T20:37:17.600Z,18.93
2023-05-09T20:39:46.781Z,20.10
2023-05-09T20:42:14.999Z,20.00
2023-05-09T20:44:43.361Z,22.37
2023-05-09T20:47:11.212Z,20.13
2023-05-09T20:49:38.987Z,17.53
2023-05-09T20:52:07.356Z,20.73
2023-05-09T20:54:35.127Z,17.70
2023-05-09T20:57:04.546Z,19.87
2023-05-09T20:59:33.980Z,17.57
2023-05-09T21:02:02.643Z,17.60
2023-05-09T21:04:30.619Z,21.43
2023-05-09T21:06:59.571Z,18.33
2023-05-09T21:09:27.569Z,19.33
2023-05-09T21:11:55.442Z,19.87
2023-05-09T21:14:24.971Z,18.40
2023-05-09T21:16:55.025Z,18.90
2023-05-09T21:19:23.098Z,17.17
2023-05-09T21:21:51.109Z,16.60
2023-05-09T21:24:19.116Z,22.13
2023-05-09T21:26:47.011Z,19.63
2023-05-09T21:29:15.008Z,19.23
2023-05-09T21:31:44.141Z,18.20
2023-05-09T21:34:12.339Z,19.57
2023-05-09T21:36:40.858Z,18.40
2023-05-09T21:39:10.225Z,19.17
2023-05-09T21:41:38.941Z,24.40
2023-05-09T21:44:07.415Z,17.30
2023-05-09T21:46:35.700Z,21.43
2023-05-09T21:49:05.144Z,17.90
2023-05-09T21:51:33.567Z,20.30
2023-05-09T21:54:02.387Z,19.27
2023-05-09T21:56:31.072Z,16.50
2023-05-09T21:58:59.328Z,24.37
2023-05-09T22:01:27.152Z,19.60
2023-05-09T22:03:55.009Z,20.57
2023-05-09T22:06:24.742Z,17.73
2023-05-09T22:08:52.740Z,17.73
2023-05-09T22:11:21.140Z,19.47
2023-05-09T22:13:48.892Z,18.10
2023-05-09T22:16:17.769Z,19.73
2023-05-09T22:18:45.670Z,18.70
2023-05-09T22:21:13.494Z,18.13
2023-05-09T22:23:42.910Z,20.30
2023-05-09T22:26:10.651Z,18.47
2023-05-09T22:28:38.446Z,20.47
2023-05-09T22:31:07.028Z,21.73
2023-05-09T22:33:34.924Z,19.83
2023-05-09T22:36:03.281Z,22.17
2023-05-09T22:38:31.631Z,20.37
2023-05-09T22:41:01.174Z,20.83
2023-05-09T22:43:36.913Z,19.70
2023-05-09T22:46:07.542Z,20.83
2023-05-09T22:48:35.709Z,21.07
2023-05-09T22:51:08.101Z,22.70
2023-05-09T22:53:36.356Z,21.80
2023-05-09T22:56:07.237Z,25.90
2023-05-09T22:58:35.268Z,20.87
2023-05-09T23:01:03.050Z,19.23
2023-05-09T23:03:31.830Z,21.53
2023-05-09T23:05:59.541Z,22.33
2023-05-09T23:08:27.747Z,22.27
2023-05-09T23:10:55.499Z,20.40
2023-05-09T23:13:25.165Z,23.10
2023-05-09T23:15:53.169Z,21.20
2023-05-09T23:18:23.597Z,23.60
2023-05-09T23:20:51.745Z,24.00
2023-05-09T23:23:19.534Z,22.40
2023-05-09T23:25:47.599Z,22.23
2023-05-09T23:28:15.513Z,23.30
2023-05-09T23:30:44.628Z,21.60
2023-05-09T23:33:12.634Z,23.30
2023-05-09T23:35:40.580Z,22.03
2023-05-09T23:38:08.315Z,25.70
2023-05-09T23:40:36.215Z,23.20
2023-05-09T23:43:04.850Z,23.67
2023-05-09T23:45:32.581Z,23.50
2023-05-09T23:48:01.711Z,31.43
2023-05-09T23:50:29.758Z,25.80
2023-05-09T23:52:57.531Z,23.87
2023-05-09T23:55:25.211Z,26.67
2023-05-09T23:57:53.311Z,25.20
